createdAt,value
2019-05-07T00:02:02.762Z,82.75
2019-05-07T00:04:37.507Z,96.95
2019-05-07T00:07:13.150Z,106.03
2019-05-07T00:09:49.073Z,119.20
2019-05-07T00:12:23.595Z,93.05
2019-05-07T00:15:04.340Z,96.57
2019-05-07T00:17:38.015Z,93.92
2019-05-07T00:20:14.108Z,89.75
2019-05-07T00:22:48.670Z,85.62
2019-05-07T00:25:23.089Z,62.58
2019-05-07T00:28:09.578Z,44.33
2019-05-07T00:30:44.335Z,29.23
2019-05-07T00:33:18.810Z,20.68
2019-05-07T00:35:54.711Z,51.37
2019-05-07T00:38:31.949Z,24.12
2019-05-07T00:41:07.649Z,26.07
2019-05-07T00:43:43.126Z,31.15
2019-05-07T00:46:18.843Z,20.70
2019-05-07T00:49:13.116Z,26.35
2019-05-07T00:51:47.872Z,22.13
2019-05-07T00:54:42.329Z,22.45
2019-05-07T00:57:18.238Z,18.32
2019-05-07T00:59:55.436Z,14.75
2019-05-07T01:02:32.196Z,17.27
2019-05-07T01:05:06.038Z,15.18
2019-05-07T01:07:41.927Z,15.38
2019-05-07T01:10:16.954Z,12.58
2019-05-07T01:12:53.155Z,11.22
2019-05-07T01:15:31.085Z,15.50
2019-05-07T01:18:03.109Z,11.60
2019-05-07T01:20:37.565Z,17.12
2019-05-07T01:23:13.380Z,16.35
2019-05-07T01:25:48.568Z,10.75
2019-05-07T01:28:23.197Z,21.15
2019-05-07T01:30:57.669Z,36.75
2019-05-07T01:33:36.625Z,54.15
2019-05-07T01:36:13.273Z,43.35
2019-05-07T01:38:47.719Z,42.50
2019-05-07T01:41:23.105Z,37.45
2019-05-07T01:43:57.465Z,30.88
2019-05-07T01:46:32.489Z,18.55
2019-05-07T01:49:07.027Z,21.55
2019-05-07T01:51:42.253Z,17.90
2019-05-07T01:54:18.111Z,19.65
2019-05-07T01:56:52.466Z,14.23
2019-05-07T01:59:26.813Z,15.13
2019-05-07T02:02:02.978Z,13.72
2019-05-07T02:04:38.982Z,14.65
2019-05-07T02:07:14.628Z,24.15
2019-05-07T02:09:51.792Z,17.98
2019-05-07T02:12:31.784Z,16.12
2019-05-07T02:15:06.030Z,12.18
2019-05-07T02:17:57.933Z,10.18
2019-05-07T02:20:32.383Z,10.85
2019-05-07T02:23:06.990Z,13.98
2019-05-07T02:25:42.027Z,12.45
2019-05-07T02:28:16.482Z,10.20
2019-05-07T02:30:53.442Z,13.60
2019-05-07T02:33:26.705Z,12.15
2019-05-07T02:36:03.123Z,9.80
2019-05-07T02:38:44.259Z,16.20
2019-05-07T02:41:33.136Z,9.68
2019-05-07T02:44:06.866Z,13.48
2019-05-07T02:46:45.688Z,11.95
2019-05-07T02:49:24.120Z,12.05
2019-05-07T02:51:59.737Z,11.88
2019-05-07T02:54:53.941Z,8.95
2019-05-07T02:57:28.028Z,11.12
2019-05-07T03:00:04.435Z,10.25
2019-05-07T03:02:37.871Z,17.20
2019-05-07T03:05:13.765Z,11.50
2019-05-07T03:07:48.578Z,12.47
2019-05-07T03:10:23.905Z,8.93
2019-05-07T03:12:58.528Z,27.30
2019-05-07T03:15:33.455Z,29.65
2019-05-07T03:18:08.421Z,17.62
2019-05-07T03:20:49.515Z,20.02
2019-05-07T03:23:25.431Z,13.68
2019-05-07T03:26:04.335Z,17.17
2019-05-07T03:28:58.526Z,41.60
2019-05-07T03:31:47.441Z,12.53
2019-05-07T03:34:26.598Z,10.78
2019-05-07T03:37:06.313Z,13.28
2019-05-07T03:39:38.521Z,10.28
2019-05-07T03:42:13.301Z,12.07
2019-05-07T03:44:53.712Z,9.58
2019-05-07T03:47:36.049Z,16.17
2019-05-07T03:50:14.591Z,8.53
2019-05-07T03:52:54.398Z,11.03
2019-05-07T03:55:29.097Z,16.57
2019-05-07T03:58:04.023Z,15.03
2019-05-07T04:00:38.541Z,13.00
2019-05-07T04:03:16.363Z,12.15
2019-05-07T04:05:52.793Z,9.95
2019-05-07T04:08:25.250Z,11.85
2019-05-07T04:11:03.154Z,11.28
2019-05-07T04:13:44.033Z,19.15
2019-05-07T04:16:18.413Z,11.63
2019-05-07T04:18:53.152Z,12.65
2019-05-07T04:21:34.161Z,18.48
2019-05-07T04:24:16.798Z,11.78
2019-05-07T04:27:05.127Z,14.78
2019-05-07T04:29:42.608Z,13.28
2019-05-07T04:32:16.670Z,9.83
2019-05-07T04:34:58.143Z,18.80
2019-05-07T04:37:33.457Z,31.40
2019-05-07T04:40:08.626Z,23.22
2019-05-07T04:42:44.895Z,25.08
2019-05-07T04:45:22.869Z,22.15
2019-05-07T04:47:55.257Z,17.00
2019-05-07T04:50:41.999Z,21.57
2019-05-07T04:53:06.688Z,19.77
2019-05-07T04:55:43.070Z,11.48
2019-05-07T04:58:17.730Z,11.93
2019-05-07T05:00:53.749Z,10.45
2019-05-07T05:03:29.977Z,17.80
2019-05-07T05:06:05.840Z,17.82
2019-05-07T05:08:43.527Z,14.35
2019-05-07T05:11:18.187Z,14.00
2019-05-07T05:13:53.266Z,9.58
2019-05-07T05:16:29.007Z,15.20
2019-05-07T05:19:03.711Z,10.10
2019-05-07T05:21:43.856Z,15.95
2019-05-07T05:24:19.610Z,10.63
2019-05-07T05:26:55.571Z,15.10
2019-05-07T05:29:32.280Z,14.85
2019-05-07T05:32:08.617Z,15.95
2019-05-07T05:34:44.492Z,9.85
2019-05-07T05:37:18.757Z,13.80
2019-05-07T05:40:05.260Z,14.55
2019-05-07T05:42:33.052Z,9.83
2019-05-07T05:45:38.375Z,10.70
2019-05-07T05:48:13.941Z,7.35
2019-05-07T05:50:53.408Z,14.75
2019-05-07T05:53:40.525Z,11.03
2019-05-07T05:56:19.289Z,7.80
2019-05-07T05:59:04.073Z,12.50
2019-05-07T06:01:56.738Z,9.98
2019-05-07T06:04:47.545Z,24.85
2019-05-07T06:07:26.598Z,8.10
2019-05-07T06:10:02.607Z,19.12
2019-05-07T06:12:52.229Z,10.23
2019-05-07T06:15:32.625Z,40.78
2019-05-07T06:18:21.021Z,13.18
2019-05-07T06:20:54.278Z,15.85
2019-05-07T06:23:33.186Z,9.93
2019-05-07T06:26:12.660Z,14.50
2019-05-07T06:28:46.986Z,8.83
2019-05-07T06:31:22.134Z,10.08
2019-05-07T06:33:57.612Z,8.08
2019-05-07T06:36:33.321Z,16.67
2019-05-07T06:39:12.582Z,11.60
2019-05-07T06:42:05.672Z,6.87
2019-05-07T06:44:42.577Z,8.58
2019-05-07T06:47:17.769Z,9.53
2019-05-07T06:49:53.155Z,15.28
2019-05-07T06:52:27.479Z,11.75
2019-05-07T06:55:03.374Z,6.72
2019-05-07T06:57:38.560Z,9.50
2019-05-07T07:00:27.125Z,10.18
2019-05-07T07:03:03.582Z,7.03
2019-05-07T07:05:42.438Z,11.12
2019-05-07T07:08:33.092Z,10.40
2019-05-07T07:11:18.046Z,10.98
2019-05-07T07:13:54.230Z,10.55
2019-05-07T07:16:28.317Z,12.30
2019-05-07T07:19:03.349Z,9.30
2019-05-07T07:21:37.900Z,11.12
2019-05-07T07:24:13.358Z,7.87
2019-05-07T07:26:48.473Z,7.85
2019-05-07T07:29:24.950Z,7.25
2019-05-07T07:32:03.364Z,15.15
2019-05-07T07:34:39.594Z,10.60
2019-05-07T07:37:26.009Z,12.47
2019-05-07T07:40:19.249Z,11.68
2019-05-07T07:42:53.934Z,16.50
2019-05-07T07:45:28.597Z,8.98
2019-05-07T07:48:02.931Z,7.90
2019-05-07T07:50:37.599Z,11.30
2019-05-07T07:53:12.976Z,12.93
2019-05-07T07:55:49.143Z,12.55
2019-05-07T07:58:25.406Z,9.35
2019-05-07T08:01:12.102Z,12.28
2019-05-07T08:03:46.119Z,11.85
2019-05-07T08:06:22.560Z,9.03
2019-05-07T08:08:57.920Z,12.37
2019-05-07T08:11:33.754Z,8.30
2019-05-07T08:14:12.538Z,11.35
2019-05-07T08:16:46.497Z,13.75
2019-05-07T08:19:25.174Z,14.23
2019-05-07T08:21:59.701Z,16.50
2019-05-07T08:24:34.009Z,12.47
2019-05-07T08:27:08.379Z,10.20
2019-05-07T08:29:43.629Z,13.20
2019-05-07T08:32:22.442Z,22.80
2019-05-07T08:35:02.374Z,14.05
2019-05-07T08:37:38.055Z,16.37
2019-05-07T08:40:13.666Z,7.62
2019-05-07T08:42:49.371Z,11.15
2019-05-07T08:45:43.047Z,10.45
2019-05-07T08:48:21.563Z,14.38
2019-05-07T08:50:56.263Z,12.25
2019-05-07T08:53:32.647Z,11.38
2019-05-07T08:56:06.191Z,10.65
2019-05-07T08:58:42.059Z,13.22
2019-05-07T09:01:16.584Z,14.33
2019-05-07T09:03:52.020Z,9.70
2019-05-07T09:06:35.748Z,17.73
2019-05-07T09:09:14.928Z,10.38
2019-05-07T09:11:49.337Z,9.30
2019-05-07T09:14:26.217Z,51.88
2019-05-07T09:17:19.947Z,15.93
2019-05-07T09:19:54.982Z,18.10
2019-05-07T09:22:32.142Z,17.55
2019-05-07T09:25:05.654Z,13.75
2019-05-07T09:27:48.726Z,10.78
2019-05-07T09:30:33.647Z,7.28
2019-05-07T09:33:09.433Z,10.32
2019-05-07T09:35:45.146Z,9.73
2019-05-07T09:38:19.701Z,10.75
2019-05-07T09:40:56.866Z,8.68
2019-05-07T09:43:29.848Z,13.50
2019-05-07T09:46:04.318Z,7.65
2019-05-07T09:48:41.637Z,12.37
2019-05-07T09:51:15.499Z,10.40
2019-05-07T09:53:51.975Z,12.80
2019-05-07T09:56:25.829Z,11.20
2019-05-07T09:59:02.198Z,13.08
2019-05-07T10:01:44.687Z,11.95
2019-05-07T10:04:28.222Z,10.82
2019-05-07T10:07:12.629Z,14.10
2019-05-07T10:09:48.793Z,9.98
2019-05-07T10:12:43.935Z,7.53
2019-05-07T10:15:18.450Z,9.35
2019-05-07T10:17:54.207Z,6.80
2019-05-07T10:20:28.773Z,6.25
2019-05-07T10:23:03.552Z,12.00
2019-05-07T10:26:08.782Z,8.78
2019-05-07T10:28:44.731Z,6.80
2019-05-07T10:31:22.229Z,6.83
2019-05-07T10:33:57.137Z,6.60
2019-05-07T10:36:33.107Z,6.08
2019-05-07T10:39:09.173Z,13.28
2019-05-07T10:41:43.484Z,10.25
2019-05-07T10:44:19.448Z,10.50
2019-05-07T10:47:12.597Z,6.35
2019-05-07T10:49:54.588Z,15.53
2019-05-07T10:52:33.966Z,12.90
2019-05-07T10:55:12.019Z,7.72
2019-05-07T10:57:46.492Z,18.75
2019-05-07T11:00:23.133Z,13.22
2019-05-07T11:02:58.054Z,17.60
2019-05-07T11:05:32.848Z,14.68
2019-05-07T11:08:07.757Z,18.57
2019-05-07T11:10:42.153Z,13.10
2019-05-07T11:13:16.581Z,12.93
2019-05-07T11:15:52.714Z,15.78
2019-05-07T11:18:28.643Z,8.23
2019-05-07T11:21:03.555Z,9.98
2019-05-07T11:23:38.241Z,9.98
2019-05-07T11:26:12.592Z,16.07
2019-05-07T11:28:47.161Z,11.57
2019-05-07T11:31:22.381Z,11.63
2019-05-07T11:33:56.838Z,10.18
2019-05-07T11:36:32.001Z,14.35
2019-05-07T11:39:07.875Z,14.95
2019-05-07T11:41:54.314Z,9.65
2019-05-07T11:44:31.936Z,7.80
2019-05-07T11:47:22.488Z,9.50
2019-05-07T11:50:15.252Z,7.62
2019-05-07T11:53:03.753Z,12.80
2019-05-07T11:55:38.112Z,15.40
2019-05-07T11:58:12.905Z,10.90
2019-05-07T12:00:58.810Z,8.05
2019-05-07T12:03:35.342Z,10.13
2019-05-07T12:06:12.424Z,12.65
2019-05-07T12:08:51.847Z,9.30
2019-05-07T12:11:23.335Z,13.95
2019-05-07T12:14:02.068Z,11.75
2019-05-07T12:16:36.142Z,7.72
2019-05-07T12:19:13.081Z,14.40
2019-05-07T12:21:47.549Z,11.70
2019-05-07T12:24:22.316Z,18.45
2019-05-07T12:26:56.978Z,13.13
2019-05-07T12:29:34.021Z,20.20
2019-05-07T12:32:25.318Z,13.90
2019-05-07T12:35:06.599Z,104.25
2019-05-07T12:37:42.773Z,88.67
2019-05-07T12:40:18.152Z,43.92
2019-05-07T12:42:54.154Z,79.12
2019-05-07T12:45:31.139Z,51.92
2019-05-07T12:48:05.869Z,66.05
2019-05-07T12:50:43.168Z,36.93
2019-05-07T12:53:22.412Z,86.72
2019-05-07T12:55:59.758Z,41.00
2019-05-07T12:58:34.721Z,31.90
2019-05-07T13:01:25.810Z,27.55
2019-05-07T13:04:05.062Z,44.65
2019-05-07T13:06:40.980Z,26.42
2019-05-07T13:09:17.097Z,21.05
2019-05-07T13:11:55.299Z,16.25
2019-05-07T13:14:30.895Z,18.48
2019-05-07T13:17:05.475Z,11.20
2019-05-07T13:19:41.857Z,13.13
2019-05-07T13:22:17.797Z,13.05
2019-05-07T13:24:53.380Z,13.58
2019-05-07T13:27:33.759Z,15.72
2019-05-07T13:30:11.726Z,9.70
2019-05-07T13:32:48.255Z,10.28
2019-05-07T13:35:23.971Z,15.83
2019-05-07T13:38:06.162Z,16.70
2019-05-07T13:40:57.068Z,13.70
2019-05-07T13:43:41.203Z,13.50
2019-05-07T13:46:19.312Z,14.60
2019-05-07T13:48:56.396Z,11.12
2019-05-07T13:51:33.862Z,13.08
2019-05-07T13:54:09.357Z,8.83
2019-05-07T13:56:43.722Z,9.90
2019-05-07T13:59:19.326Z,11.30
2019-05-07T14:01:55.902Z,10.15
2019-05-07T14:04:30.317Z,11.43
2019-05-07T14:07:05.630Z,8.20
2019-05-07T14:09:42.245Z,15.03
2019-05-07T14:12:17.228Z,9.63
2019-05-07T14:14:53.079Z,7.62
2019-05-07T14:17:29.040Z,9.45
2019-05-07T14:20:15.813Z,10.85
2019-05-07T14:22:51.695Z,8.65
2019-05-07T14:25:28.851Z,10.28
2019-05-07T14:28:23.576Z,12.07
2019-05-07T14:31:01.876Z,10.28
2019-05-07T14:33:53.939Z,13.93
2019-05-07T14:36:42.622Z,7.42
2019-05-07T14:39:22.048Z,15.53
2019-05-07T14:42:06.735Z,17.05
2019-05-07T14:44:52.787Z,19.40
2019-05-07T14:47:29.620Z,13.40
2019-05-07T14:52:57.627Z,17.00
2019-05-07T14:55:34.315Z,15.23
2019-05-07T14:58:12.420Z,18.95
2019-05-07T15:00:51.896Z,14.65
2019-05-07T15:03:33.346Z,12.90
2019-05-07T15:06:07.811Z,12.85
2019-05-07T15:08:42.965Z,12.53
2019-05-07T15:11:19.762Z,15.32
2019-05-07T15:13:56.973Z,10.70
2019-05-07T15:16:31.970Z,9.48
2019-05-07T15:19:07.055Z,9.63
2019-05-07T15:21:42.722Z,15.95
2019-05-07T15:24:21.963Z,15.70
2019-05-07T15:26:57.558Z,15.13
2019-05-07T15:29:35.227Z,12.50
2019-05-07T15:32:13.127Z,12.13
2019-05-07T15:34:49.078Z,10.23
2019-05-07T15:37:24.565Z,8.70
2019-05-07T15:40:02.665Z,8.55
2019-05-07T15:42:38.940Z,8.98
2019-05-07T15:45:19.397Z,8.30
2019-05-07T15:47:59.527Z,11.40
2019-05-07T15:50:36.375Z,11.97
2019-05-07T15:53:28.452Z,10.68
2019-05-07T15:56:07.063Z,10.13
2019-05-07T15:58:44.120Z,11.35
2019-05-07T16:01:18.549Z,12.10
2019-05-07T16:03:59.371Z,9.18
2019-05-07T16:06:35.925Z,11.05
2019-05-07T16:09:14.546Z,10.15
2019-05-07T16:11:57.547Z,8.88
2019-05-07T16:14:41.916Z,13.62
2019-05-07T16:17:18.072Z,13.25
2019-05-07T16:19:55.190Z,14.15
2019-05-07T16:22:34.376Z,13.38
2019-05-07T16:25:11.948Z,11.03
2019-05-07T16:27:52.610Z,11.97
2019-05-07T16:30:29.150Z,13.90
2019-05-07T16:33:10.020Z,9.78
2019-05-07T16:35:48.180Z,7.70
2019-05-07T16:38:28.796Z,10.50
2019-05-07T16:41:04.173Z,14.90
2019-05-07T16:43:39.638Z,13.15
2019-05-07T16:46:15.767Z,10.82
2019-05-07T16:48:51.206Z,10.68
2019-05-07T16:51:26.573Z,9.73
2019-05-07T16:54:03.408Z,9.80
2019-05-07T16:56:39.659Z,9.00
2019-05-07T16:59:15.460Z,11.08
2019-05-07T17:01:52.032Z,7.85
2019-05-07T17:04:31.911Z,8.55
2019-05-07T17:07:07.880Z,11.95
2019-05-07T17:09:44.594Z,8.58
2019-05-07T17:12:21.954Z,7.83
2019-05-07T17:15:02.741Z,8.08
2019-05-07T17:17:36.780Z,10.55
2019-05-07T17:20:12.700Z,13.70
2019-05-07T17:22:47.533Z,15.93
2019-05-07T17:25:39.834Z,15.23
2019-05-07T17:28:14.314Z,20.15
2019-05-07T17:30:52.295Z,14.25
2019-05-07T17:33:27.494Z,11.03
2019-05-07T17:36:02.412Z,13.28
2019-05-07T17:38:38.473Z,10.85
2019-05-07T17:41:18.273Z,11.08
2019-05-07T17:43:51.926Z,10.90
2019-05-07T17:46:25.463Z,6.90
2019-05-07T17:49:06.646Z,10.82
2019-05-07T17:51:44.913Z,10.35
2019-05-07T17:54:24.180Z,9.98
2019-05-07T17:57:01.823Z,10.55
2019-05-07T17:59:37.133Z,11.45
2019-05-07T18:02:18.445Z,12.40
2019-05-07T18:04:54.692Z,10.15
2019-05-07T18:07:31.067Z,11.05
2019-05-07T18:10:05.643Z,16.85
2019-05-07T18:12:42.553Z,8.10
2019-05-07T18:15:17.755Z,11.50
2019-05-07T18:17:53.203Z,8.95
2019-05-07T18:20:30.125Z,8.00
2019-05-07T18:23:07.077Z,9.78
2019-05-07T18:25:42.676Z,11.50
2019-05-07T18:28:16.403Z,10.50
2019-05-07T18:30:52.024Z,11.63
2019-05-07T18:33:27.859Z,9.35
2019-05-07T18:36:02.825Z,8.45
2019-05-07T18:38:38.345Z,10.60
2019-05-07T18:41:12.729Z,7.87
2019-05-07T18:43:47.585Z,9.00
2019-05-07T18:46:24.949Z,8.30
2019-05-07T18:48:59.587Z,11.22
2019-05-07T18:51:34.189Z,11.60
2019-05-07T18:54:08.539Z,12.90
2019-05-07T18:56:42.880Z,11.50
2019-05-07T18:59:17.849Z,8.83
2019-05-07T19:01:52.712Z,8.58
2019-05-07T19:04:29.985Z,13.20
2019-05-07T19:07:02.767Z,11.95
2019-05-07T19:09:37.176Z,13.38
2019-05-07T19:12:13.066Z,11.85
2019-05-07T19:14:59.166Z,11.70
2019-05-07T19:17:34.703Z,11.25
2019-05-07T19:20:09.527Z,11.40
2019-05-07T19:22:43.956Z,7.83
2019-05-07T19:25:18.881Z,12.00
2019-05-07T19:27:53.304Z,10.72
2019-05-07T19:30:41.918Z,8.88
2019-05-07T19:33:15.293Z,9.40
2019-05-07T19:35:49.772Z,9.63
2019-05-07T19:38:24.130Z,8.30
2019-05-07T19:40:58.655Z,8.40
2019-05-07T19:43:36.106Z,8.25
2019-05-07T19:46:08.873Z,9.05
2019-05-07T19:48:44.050Z,8.40
2019-05-07T19:51:18.545Z,7.72
2019-05-07T19:53:52.817Z,6.60
2019-05-07T19:56:27.304Z,8.78
2019-05-07T19:59:01.709Z,7.35
2019-05-07T20:01:38.218Z,10.78
2019-05-07T20:04:13.285Z,9.00
2019-05-07T20:06:47.740Z,11.63
2019-05-07T20:09:23.784Z,8.08
2019-05-07T20:11:58.134Z,10.25
2019-05-07T20:14:33.151Z,11.15
2019-05-07T20:17:07.900Z,9.60
2019-05-07T20:19:42.453Z,8.43
2019-05-07T20:22:16.852Z,11.80
2019-05-07T20:24:52.728Z,8.98
2019-05-07T20:27:27.506Z,9.10
2019-05-07T20:30:03.130Z,7.72
2019-05-07T20:32:38.699Z,7.95
2019-05-07T20:35:14.323Z,7.80
2019-05-07T20:37:49.150Z,8.48
2019-05-07T20:40:23.357Z,9.13
2019-05-07T20:42:57.656Z,7.78
2019-05-07T20:45:32.391Z,11.00
2019-05-07T20:48:07.130Z,8.33
2019-05-07T20:50:42.397Z,8.40
2019-05-07T20:53:16.935Z,7.78
2019-05-07T20:55:58.601Z,7.97
2019-05-07T20:58:32.927Z,8.10
2019-05-07T21:01:07.392Z,8.23
2019-05-07T21:03:42.925Z,10.60
2019-05-07T21:06:17.559Z,7.05
2019-05-07T21:08:53.040Z,11.08
2019-05-07T21:11:27.431Z,8.20
2019-05-07T21:14:03.255Z,8.88
2019-05-07T21:16:37.389Z,7.55
2019-05-07T21:19:12.797Z,9.23
2019-05-07T21:21:47.687Z,6.62
2019-05-07T21:24:23.045Z,7.42
2019-05-07T21:26:57.497Z,8.98
2019-05-07T21:29:32.608Z,7.53
2019-05-07T21:32:07.049Z,8.43
2019-05-07T21:34:42.157Z,8.28
2019-05-07T21:37:16.671Z,8.83
2019-05-07T21:39:52.986Z,6.47
2019-05-07T21:42:26.804Z,11.20
2019-05-07T21:45:02.098Z,8.93
2019-05-07T21:47:36.560Z,8.98
2019-05-07T21:50:12.407Z,10.05
2019-05-07T21:52:55.097Z,7.95
2019-05-07T21:55:36.852Z,17.05
2019-05-07T21:58:28.861Z,7.78
2019-05-07T22:01:05.641Z,7.72
2019-05-07T22:03:43.170Z,8.20
2019-05-07T22:06:18.055Z,9.30
2019-05-07T22:08:54.787Z,8.10
2019-05-07T22:11:32.149Z,12.47
2019-05-07T22:14:05.146Z,9.90
2019-05-07T22:16:39.562Z,10.08
2019-05-07T22:19:13.866Z,9.48
2019-05-07T22:21:48.074Z,10.03
2019-05-07T22:24:22.520Z,13.30
2019-05-07T22:26:56.890Z,8.18
2019-05-07T22:29:31.219Z,7.62
2019-05-07T22:32:11.749Z,9.60
2019-05-07T22:34:47.409Z,9.80
2019-05-07T22:37:22.899Z,11.10
2019-05-07T22:40:13.814Z,11.35
2019-05-07T22:42:49.403Z,8.30
2019-05-07T22:45:23.721Z,11.95
2019-05-07T22:48:00.119Z,9.28
2019-05-07T22:50:34.844Z,13.65
2019-05-07T22:53:09.220Z,12.05
2019-05-07T22:55:43.633Z,9.40
2019-05-07T22:58:22.026Z,12.30
2019-05-07T23:01:07.716Z,12.63
2019-05-07T23:04:02.966Z,12.85
2019-05-07T23:06:37.880Z,16.02
2019-05-07T23:09:32.124Z,18.00
2019-05-07T23:12:06.502Z,23.38
2019-05-07T23:14:40.782Z,14.93
2019-05-07T23:17:15.178Z,18.23
2019-05-07T23:19:52.046Z,14.75
2019-05-07T23:22:25.473Z,13.08
2019-05-07T23:25:00.199Z,15.23
2019-05-07T23:27:34.549Z,13.18
2019-05-07T23:30:09.392Z,13.20
2019-05-07T23:32:48.820Z,11.15
2019-05-07T23:35:23.453Z,12.60
2019-05-07T23:38:02.472Z,41.98
2019-05-07T23:40:42.125Z,34.13
2019-05-07T23:43:22.603Z,28.35
2019-05-07T23:45:56.652Z,69.12
2019-05-07T23:48:32.128Z,75.40
2019-05-07T23:51:07.975Z,580.37
2019-05-07T23:53:44.187Z,285.70
2019-05-07T23:56:17.887Z,222.50
2019-05-07T23:58:52.518Z,172.20
